sensor_id;sensor_type;location;lat;lon;timestamp;temperature;humidity
74376;HTU21D;62812;55.188;61.302;2023-04-06T10:40:46;17.18;28.39
74376;HTU21D;62812;55.188;61.302;2023-04-06T10:43:20;17.14;28.75
74376;HTU21D;62812;55.188;61.302;2023-04-06T10:45:55;16.98;29.56
74376;HTU21D;62812;55.188;61.302;2023-04-06T10:48:23;17.01;29.01
74376;HTU21D;62812;55.188;61.302;2023-04-06T10:50:52;17.07;29.35
74376;HTU21D;62812;55.188;61.302;2023-04-06T10:53:23;17.28;29.38
74376;HTU21D;62812;55.188;61.302;2023-04-06T10:56:12;17.16;29.42
74376;HTU21D;62812;55.188;61.302;2023-04-06T10:58:47;17.15;29.03
74376;HTU21D;62812;55.188;61.302;2023-04-06T11:05:00;17.39;28.33
74376;HTU21D;62812;55.188;61.302;2023-04-06T11:07:30;17.19;28.48
74376;HTU21D;62812;55.188;61.302;2023-04-06T11:09:57;17.04;29.73
74376;HTU21D;62812;55.188;61.302;2023-04-06T11:12:31;17.26;28.87
74376;HTU21D;62812;55.188;61.302;2023-04-06T11:15:03;17.20;28.11
74376;HTU21D;62812;55.188;61.302;2023-04-06T11:17:34;16.94;28.83
74376;HTU21D;62812;55.188;61.302;2023-04-06T11:20:11;17.01;29.42
74376;HTU21D;62812;55.188;61.302;2023-04-06T11:22:52;17.17;29.19
74376;HTU21D;62812;55.188;61.302;2023-04-06T11:25:19;17.09;29.10
74376;HTU21D;62812;55.188;61.302;2023-04-06T11:27:48;16.91;29.51
74376;HTU21D;62812;55.188;61.302;2023-04-06T11:30:15;16.71;29.87
74376;HTU21D;62812;55.188;61.302;2023-04-06T11:32:43;16.47;30.06
74376;HTU21D;62812;55.188;61.302;2023-04-06T11:35:20;16.36;31.00
74376;HTU21D;62812;55.188;61.302;2023-04-06T11:37:48;16.32;31.28
74376;HTU21D;62812;55.188;61.302;2023-04-06T11:40:20;16.50;30.65
74376;HTU21D;62812;55.188;61.302;2023-04-06T11:42:54;16.75;30.34
74376;HTU21D;62812;55.188;61.302;2023-04-06T11:45:22;16.77;30.31
74376;HTU21D;62812;55.188;61.302;2023-04-06T11:48:17;16.42;31.54
74376;HTU21D;62812;55.188;61.302;2023-04-06T11:50:54;16.20;32.21
74376;HTU21D;62812;55.188;61.302;2023-04-06T11:53:21;16.30;32.03
74376;HTU21D;62812;55.188;61.302;2023-04-06T11:55:51;16.15;32.80
74376;HTU21D;62812;55.188;61.302;2023-04-06T12:01:17;16.50;31.84
74376;HTU21D;62812;55.188;61.302;2023-04-06T12:03:45;16.45;32.26
74376;HTU21D;62812;55.188;61.302;2023-04-06T12:06:15;16.34;32.51
74376;HTU21D;62812;55.188;61.302;2023-04-06T12:08:43;16.18;32.95
74376;HTU21D;62812;55.188;61.302;2023-04-06T12:11:11;16.20;32.84
74376;HTU21D;62812;55.188;61.302;2023-04-06T12:13:39;16.13;33.08
74376;HTU21D;62812;55.188;61.302;2023-04-06T12:16:09;16.08;32.93
74376;HTU21D;62812;55.188;61.302;2023-04-06T12:18:39;16.08;32.97
74376;HTU21D;62812;55.188;61.302;2023-04-06T12:21:10;16.10;32.91
74376;HTU21D;62812;55.188;61.302;2023-04-06T12:23:38;16.03;32.77
74376;HTU21D;62812;55.188;61.302;2023-04-06T12:26:09;16.01;32.96
74376;HTU21D;62812;55.188;61.302;2023-04-06T12:28:37;16.08;32.86
74376;HTU21D;62812;55.188;61.302;2023-04-06T12:31:06;16.13;32.89
74376;HTU21D;62812;55.188;61.302;2023-04-06T12:33:39;16.21;32.85
74376;HTU21D;62812;55.188;61.302;2023-04-06T12:36:11;16.06;33.16
74376;HTU21D;62812;55.188;61.302;2023-04-06T12:38:40;16.11;33.13
74376;HTU21D;62812;55.188;61.302;2023-04-06T12:41:08;16.22;32.80
74376;HTU21D;62812;55.188;61.302;2023-04-06T12:43:35;16.12;32.99
74376;HTU21D;62812;55.188;61.302;2023-04-06T12:46:02;15.96;33.32
74376;HTU21D;62812;55.188;61.302;2023-04-06T12:48:29;15.86;33.73
74376;HTU21D;62812;55.188;61.302;2023-04-06T12:54:21;15.70;34.03
74376;HTU21D;62812;55.188;61.302;2023-04-06T12:56:50;15.66;34.21
74376;HTU21D;62812;55.188;61.302;2023-04-06T12:59:17;15.69;34.07
74376;HTU21D;62812;55.188;61.302;2023-04-06T13:01:47;15.70;34.22
74376;HTU21D;62812;55.188;61.302;2023-04-06T13:04:19;15.41;34.81
74376;HTU21D;62812;55.188;61.302;2023-04-06T13:06:47;15.36;35.19
74376;HTU21D;62812;55.188;61.302;2023-04-06T13:09:16;15.48;34.86
74376;HTU21D;62812;55.188;61.302;2023-04-06T13:11:43;15.70;34.44
74376;HTU21D;62812;55.188;61.302;2023-04-06T13:14:12;15.51;34.79
74376;HTU21D;62812;55.188;61.302;2023-04-06T13:16:41;15.08;35.85
74376;HTU21D;62812;55.188;61.302;2023-04-06T13:19:14;14.87;36.40
74376;HTU21D;62812;55.188;61.302;2023-04-06T13:21:45;14.67;37.50
74376;HTU21D;62812;55.188;61.302;2023-04-06T13:24:20;14.35;37.94
74376;HTU21D;62812;55.188;61.302;2023-04-06T13:27:03;14.07;39.12
74376;HTU21D;62812;55.188;61.302;2023-04-06T13:29:31;14.01;38.69
74376;HTU21D;62812;55.188;61.302;2023-04-06T13:32:01;14.06;38.87
74376;HTU21D;62812;55.188;61.302;2023-04-06T13:34:31;14.15;38.19
74376;HTU21D;62812;55.188;61.302;2023-04-06T13:37:04;14.37;37.89
74376;HTU21D;62812;55.188;61.302;2023-04-06T13:39:44;14.47;37.96
74376;HTU21D;62812;55.188;61.302;2023-04-06T13:42:12;14.60;37.57
74376;HTU21D;62812;55.188;61.302;2023-04-06T13:44:55;14.32;38.43
74376;HTU21D;62812;55.188;61.302;2023-04-06T13:47:30;14.10;38.54
74376;HTU21D;62812;55.188;61.302;2023-04-06T13:49:58;14.07;38.75
74376;HTU21D;62812;55.188;61.302;2023-04-06T13:52:28;14.15;38.20
74376;HTU21D;62812;55.188;61.302;2023-04-06T14:04:50;13.86;39.80
74376;HTU21D;62812;55.188;61.302;2023-04-06T14:07:30;13.68;39.48
74376;HTU21D;62812;55.188;61.302;2023-04-06T14:09:57;13.59;39.85
74376;HTU21D;62812;55.188;61.302;2023-04-06T14:12:24;13.53;40.12
74376;HTU21D;62812;55.188;61.302;2023-04-06T14:15:03;13.71;39.45
74376;HTU21D;62812;55.188;61.302;2023-04-06T14:18:10;13.68;39.41
74376;HTU21D;62812;55.188;61.302;2023-04-06T14:27:08;13.00;42.00
74376;HTU21D;62812;55.188;61.302;2023-04-06T14:29:40;12.86;42.58
74376;HTU21D;62812;55.188;61.302;2023-04-06T14:32:20;12.73;42.40
74376;HTU21D;62812;55.188;61.302;2023-04-06T14:34:50;12.73;43.26
74376;HTU21D;62812;55.188;61.302;2023-04-06T14:37:26;12.80;42.22
74376;HTU21D;62812;55.188;61.302;2023-04-06T14:39:54;12.58;43.76
74376;HTU21D;62812;55.188;61.302;2023-04-06T14:42:30;12.59;43.71
74376;HTU21D;62812;55.188;61.302;2023-04-06T14:44:58;12.28;45.12
74376;HTU21D;62812;55.188;61.302;2023-04-06T14:47:28;12.03;44.54
74376;HTU21D;62812;55.188;61.302;2023-04-06T14:49:55;12.08;44.59
74376;HTU21D;62812;55.188;61.302;2023-04-06T14:52:31;12.35;43.93
74376;HTU21D;62812;55.188;61.302;2023-04-06T14:55:03;12.33;43.46
74376;HTU21D;62812;55.188;61.302;2023-04-06T15:07:38;12.22;44.16
74376;HTU21D;62812;55.188;61.302;2023-04-06T15:13:28;11.77;45.48
74376;HTU21D;62812;55.188;61.302;2023-04-06T15:19:05;12.03;45.66
74376;HTU21D;62812;55.188;61.302;2023-04-06T15:34:34;10.65;49.24
74376;HTU21D;62812;55.188;61.302;2023-04-06T15:39:59;10.83;48.07
74376;HTU21D;62812;55.188;61.302;2023-04-06T15:42:39;10.66;48.36
74376;HTU21D;62812;55.188;61.302;2023-04-06T15:45:29;10.50;49.21
74376;HTU21D;62812;55.188;61.302;2023-04-06T15:48:48;10.12;50.43
74376;HTU21D;62812;55.188;61.302;2023-04-06T15:51:44;9.93;50.92
74376;HTU21D;62812;55.188;61.302;2023-04-06T15:54:33;10.07;50.62
74376;HTU21D;62812;55.188;61.302;2023-04-06T15:57:46;9.86;51.18
74376;HTU21D;62812;55.188;61.302;2023-04-06T16:00:29;9.98;50.84
74376;HTU21D;62812;55.188;61.302;2023-04-06T16:34:29;9.33;48.21
74376;HTU21D;62812;55.188;61.302;2023-04-06T16:38:01;9.50;47.23
74376;HTU21D;62812;55.188;61.302;2023-04-06T16:44:16;9.56;47.00
74376;HTU21D;62812;55.188;61.302;2023-04-06T16:47:32;9.34;47.82
74376;HTU21D;62812;55.188;61.302;2023-04-06T16:50:07;9.19;47.96
74376;HTU21D;62812;55.188;61.302;2023-04-06T16:52:36;9.25;48.35
74376;HTU21D;62812;55.188;61.302;2023-04-06T16:58:30;9.17;48.18
74376;HTU21D;62812;55.188;61.302;2023-04-06T17:01:35;9.07;47.31
74376;HTU21D;62812;55.188;61.302;2023-04-06T17:15:06;9.00;46.86
74376;HTU21D;62812;55.188;61.302;2023-04-06T17:17:50;8.95;46.78
74376;HTU21D;62812;55.188;61.302;2023-04-06T17:20:38;9.05;46.77
74376;HTU21D;62812;55.188;61.302;2023-04-06T17:23:09;9.01;46.60
74376;HTU21D;62812;55.188;61.302;2023-04-06T17:25:50;9.30;45.55
74376;HTU21D;62812;55.188;61.302;2023-04-06T17:29:50;9.36;45.32
74376;HTU21D;62812;55.188;61.302;2023-04-06T17:32:33;9.27;45.42
74376;HTU21D;62812;55.188;61.302;2023-04-06T17:35:06;9.50;44.77
74376;HTU21D;62812;55.188;61.302;2023-04-06T17:37:34;9.39;45.52
74376;HTU21D;62812;55.188;61.302;2023-04-06T17:44:13;9.60;44.32
74376;HTU21D;62812;55.188;61.302;2023-04-06T17:46:45;9.31;44.93
74376;HTU21D;62812;55.188;61.302;2023-04-06T17:49:33;9.24;45.02
74376;HTU21D;62812;55.188;61.302;2023-04-06T17:56:39;8.92;44.53
74376;HTU21D;62812;55.188;61.302;2023-04-06T17:59:11;8.94;45.01
74376;HTU21D;62812;55.188;61.302;2023-04-06T18:01:39;9.02;43.64
74376;HTU21D;62812;55.188;61.302;2023-04-06T18:08:34;9.16;42.22
74376;HTU21D;62812;55.188;61.302;2023-04-06T18:11:14;9.08;42.36
74376;HTU21D;62812;55.188;61.302;2023-04-06T18:13:51;9.01;41.81
74376;HTU21D;62812;55.188;61.302;2023-04-06T18:16:24;9.02;42.00
74376;HTU21D;62812;55.188;61.302;2023-04-06T18:18:55;8.79;41.01
74376;HTU21D;62812;55.188;61.302;2023-04-06T18:21:41;8.60;42.47
74376;HTU21D;62812;55.188;61.302;2023-04-06T18:24:14;8.64;41.84
74376;HTU21D;62812;55.188;61.302;2023-04-06T18:26:49;8.62;41.68
74376;HTU21D;62812;55.188;61.302;2023-04-06T18:32:00;8.68;40.54
74376;HTU21D;62812;55.188;61.302;2023-04-06T18:34:37;8.55;40.06
74376;HTU21D;62812;55.188;61.302;2023-04-06T18:37:10;8.23;39.56
74376;HTU21D;62812;55.188;61.302;2023-04-06T18:39:42;8.17;40.98
74376;HTU21D;62812;55.188;61.302;2023-04-06T18:42:13;8.18;40.00
74376;HTU21D;62812;55.188;61.302;2023-04-06T18:44:40;8.04;39.84
74376;HTU21D;62812;55.188;61.302;2023-04-06T18:47:07;7.99;40.75
74376;HTU21D;62812;55.188;61.302;2023-04-06T18:49:44;7.98;40.84
74376;HTU21D;62812;55.188;61.302;2023-04-06T18:52:19;8.00;40.65
74376;HTU21D;62812;55.188;61.302;2023-04-06T18:58:10;7.94;40.30
74376;HTU21D;62812;55.188;61.302;2023-04-06T19:16:51;7.14;41.95
74376;HTU21D;62812;55.188;61.302;2023-04-06T19:38:46;6.66;42.10
74376;HTU21D;62812;55.188;61.302;2023-04-06T19:44:07;6.51;42.39
74376;HTU21D;62812;55.188;61.302;2023-04-06T19:46:37;6.30;43.11
74376;HTU21D;62812;55.188;61.302;2023-04-06T19:49:05;6.38;42.71
74376;HTU21D;62812;55.188;61.302;2023-04-06T19:51:35;6.58;42.33
74376;HTU21D;62812;55.188;61.302;2023-04-06T19:54:07;6.40;42.23
74376;HTU21D;62812;55.188;61.302;2023-04-06T19:56:37;6.39;42.50
74376;HTU21D;62812;55.188;61.302;2023-04-06T19:59:05;6.50;42.19
74376;HTU21D;62812;55.188;61.302;2023-04-06T20:01:32;6.55;42.10
74376;HTU21D;62812;55.188;61.302;2023-04-06T20:03:59;6.57;41.63
74376;HTU21D;62812;55.188;61.302;2023-04-06T20:06:30;6.56;41.87
74376;HTU21D;62812;55.188;61.302;2023-04-06T20:08:58;6.34;42.37
74376;HTU21D;62812;55.188;61.302;2023-04-06T20:11:28;6.23;42.65
74376;HTU21D;62812;55.188;61.302;2023-04-06T20:13:55;6.15;42.88
74376;HTU21D;62812;55.188;61.302;2023-04-06T20:16:23;6.20;42.45
74376;HTU21D;62812;55.188;61.302;2023-04-06T20:18:59;6.15;42.77
74376;HTU21D;62812;55.188;61.302;2023-04-06T20:24:32;6.31;42.16
74376;HTU21D;62812;55.188;61.302;2023-04-06T20:27:01;6.04;43.00
74376;HTU21D;62812;55.188;61.302;2023-04-06T20:29:29;6.01;42.93
74376;HTU21D;62812;55.188;61.302;2023-04-06T20:31:57;5.82;43.68
74376;HTU21D;62812;55.188;61.302;2023-04-06T20:34:24;5.63;43.87
74376;HTU21D;62812;55.188;61.302;2023-04-06T20:36:55;5.55;44.35
74376;HTU21D;62812;55.188;61.302;2023-04-06T20:39:23;5.56;44.40
74376;HTU21D;62812;55.188;61.302;2023-04-06T20:41:57;5.11;45.44
74376;HTU21D;62812;55.188;61.302;2023-04-06T20:44:48;4.87;46.28
74376;HTU21D;62812;55.188;61.302;2023-04-06T20:47:15;5.10;45.54
74376;HTU21D;62812;55.188;61.302;2023-04-06T20:49:42;5.09;45.83
74376;HTU21D;62812;55.188;61.302;2023-04-06T20:52:14;5.16;45.28
74376;HTU21D;62812;55.188;61.302;2023-04-06T20:54:44;5.13;45.33
74376;HTU21D;62812;55.188;61.302;2023-04-06T20:57:33;5.18;45.16
74376;HTU21D;62812;55.188;61.302;2023-04-06T21:00:05;5.06;46.04
74376;HTU21D;62812;55.188;61.302;2023-04-06T21:05:57;4.57;47.32
74376;HTU21D;62812;55.188;61.302;2023-04-06T21:08:34;4.54;46.99
74376;HTU21D;62812;55.188;61.302;2023-04-06T21:11:01;4.77;46.51
74376;HTU21D;62812;55.188;61.302;2023-04-06T21:13:29;4.69;46.70
74376;HTU21D;62812;55.188;61.302;2023-04-06T21:15:58;4.59;47.44
74376;HTU21D;62812;55.188;61.302;2023-04-06T21:18:29;4.56;47.43
74376;HTU21D;62812;55.188;61.302;2023-04-06T21:27:07;4.43;47.34
74376;HTU21D;62812;55.188;61.302;2023-04-06T21:29:38;4.49;47.29
74376;HTU21D;62812;55.188;61.302;2023-04-06T21:32:09;4.41;47.87
74376;HTU21D;62812;55.188;61.302;2023-04-06T21:34:36;4.37;47.92
74376;HTU21D;62812;55.188;61.302;2023-04-06T21:37:12;4.23;48.21
74376;HTU21D;62812;55.188;61.302;2023-04-06T21:42:48;3.94;48.86
74376;HTU21D;62812;55.188;61.302;2023-04-06T21:51:33;3.74;50.01
74376;HTU21D;62812;55.188;61.302;2023-04-06T21:54:00;3.83;48.90
74376;HTU21D;62812;55.188;61.302;2023-04-06T21:59:08;4.02;49.05
74376;HTU21D;62812;55.188;61.302;2023-04-06T22:01:35;4.18;47.86
74376;HTU21D;62812;55.188;61.302;2023-04-06T22:04:11;4.15;49.19
74376;HTU21D;62812;55.188;61.302;2023-04-06T22:06:40;3.88;49.69
74376;HTU21D;62812;55.188;61.302;2023-04-06T22:09:08;3.50;50.84
74376;HTU21D;62812;55.188;61.302;2023-04-06T22:11:37;3.19;51.58
74376;HTU21D;62812;55.188;61.302;2023-04-06T22:17:13;3.26;51.17
74376;HTU21D;62812;55.188;61.302;2023-04-06T22:19:40;2.99;51.78
74376;HTU21D;62812;55.188;61.302;2023-04-06T22:25:05;2.73;52.18
74376;HTU21D;62812;55.188;61.302;2023-04-06T22:30:56;2.88;51.53
74376;HTU21D;62812;55.188;61.302;2023-04-06T22:33:23;2.76;51.79
74376;HTU21D;62812;55.188;61.302;2023-04-06T22:35:51;2.57;52.36
74376;HTU21D;62812;55.188;61.302;2023-04-06T22:49:25;2.16;53.06
74376;HTU21D;62812;55.188;61.302;2023-04-06T22:54:43;2.10;52.98
74376;HTU21D;62812;55.188;61.302;2023-04-06T23:02:39;2.11;53.87
74376;HTU21D;62812;55.188;61.302;2023-04-06T23:05:06;2.01;54.11
74376;HTU21D;62812;55.188;61.302;2023-04-06T23:07:34;2.03;53.21
74376;HTU21D;62812;55.188;61.302;2023-04-06T23:10:01;1.98;53.78
74376;HTU21D;62812;55.188;61.302;2023-04-06T23:12:28;2.20;52.61
74376;HTU21D;62812;55.188;61.302;2023-04-06T23:14:55;2.07;53.43
74376;HTU21D;62812;55.188;61.302;2023-04-06T23:17:23;2.07;53.17
74376;HTU21D;62812;55.188;61.302;2023-04-06T23:19:53;1.99;53.79
74376;HTU21D;62812;55.188;61.302;2023-04-06T23:22:20;1.98;53.62
74376;HTU21D;62812;55.188;61.302;2023-04-06T23:24:48;1.99;53.74
74376;HTU21D;62812;55.188;61.302;2023-04-06T23:27:15;2.02;53.63
74376;HTU21D;62812;55.188;61.302;2023-04-06T23:29:43;2.43;50.89
74376;HTU21D;62812;55.188;61.302;2023-04-06T23:32:10;2.30;51.98
74376;HTU21D;62812;55.188;61.302;2023-04-06T23:34:37;2.24;53.01
74376;HTU21D;62812;55.188;61.302;2023-04-06T23:37:07;2.17;52.72
74376;HTU21D;62812;55.188;61.302;2023-04-06T23:39:34;2.13;53.10
74376;HTU21D;62812;55.188;61.302;2023-04-06T23:42:02;1.97;53.65
74376;HTU21D;62812;55.188;61.302;2023-04-06T23:44:29;1.96;53.46
74376;HTU21D;62812;55.188;61.302;2023-04-06T23:46:58;1.85;54.13
74376;HTU21D;62812;55.188;61.302;2023-04-06T23:49:27;2.07;53.01
74376;HTU21D;62812;55.188;61.302;2023-04-06T23:52:03;1.95;53.20
74376;HTU21D;62812;55.188;61.302;2023-04-06T23:54:36;1.87;54.01
74376;HTU21D;62812;55.188;61.302;2023-04-06T23:57:07;2.00;52.78
